createdAt,value
2022-11-07T00:02:00.878Z,93.42
2022-11-07T00:04:29.745Z,93.57
2022-11-07T00:06:59.011Z,93.63
2022-11-07T00:09:27.011Z,93.45
2022-11-07T00:11:54.589Z,93.46
2022-11-07T00:14:22.483Z,93.32
2022-11-07T00:16:50.408Z,93.58
2022-11-07T00:19:21.003Z,93.66
2022-11-07T00:21:51.703Z,93.65
2022-11-07T00:24:20.691Z,93.72
2022-11-07T00:26:49.015Z,93.84
2022-11-07T00:29:18.674Z,93.43
2022-11-07T00:31:46.767Z,93.46
2022-11-07T00:34:14.707Z,93.87
2022-11-07T00:36:42.363Z,94.01
2022-11-07T00:39:11.303Z,93.68
2022-11-07T00:41:40.276Z,93.68
2022-11-07T00:44:08.332Z,93.61
2022-11-07T00:46:35.787Z,93.30
2022-11-07T00:49:03.426Z,93.58
2022-11-07T00:51:32.023Z,93.88
2022-11-07T00:53:59.700Z,93.56
2022-11-07T00:56:27.343Z,93.42
2022-11-07T00:58:57.088Z,93.56
2022-11-07T01:01:26.577Z,93.60
2022-11-07T01:04:11.689Z,93.73
2022-11-07T01:06:43.954Z,93.66
2022-11-07T01:09:13.261Z,93.75
2022-11-07T01:11:41.162Z,94.05
2022-11-07T01:14:11.513Z,93.94
2022-11-07T01:16:39.713Z,94.12
2022-11-07T01:19:08.031Z,93.79
2022-11-07T01:21:37.635Z,93.89
2022-11-07T01:24:05.975Z,94.12
2022-11-07T01:26:33.617Z,93.77
2022-11-07T01:29:01.530Z,93.86
2022-11-07T01:31:31.277Z,93.97
2022-11-07T01:33:59.156Z,94.17
2022-11-07T01:36:27.132Z,93.92
2022-11-07T01:38:54.908Z,93.87
2022-11-07T01:41:25.481Z,94.05
2022-11-07T01:43:57.243Z,93.76
2022-11-07T01:46:28.039Z,93.84
2022-11-07T01:49:03.596Z,93.56
2022-11-07T01:51:34.521Z,93.91
2022-11-07T01:54:03.543Z,93.79
2022-11-07T01:56:34.557Z,94.13
2022-11-07T01:59:03.557Z,93.97
2022-11-07T02:01:31.240Z,93.79
2022-11-07T02:04:01.376Z,93.81
2022-11-07T02:06:37.370Z,93.83
2022-11-07T02:09:05.740Z,93.98
2022-11-07T02:11:34.930Z,93.76
2022-11-07T02:14:02.557Z,94.03
2022-11-07T02:16:32.632Z,93.52
2022-11-07T02:19:02.854Z,93.58
2022-11-07T02:21:41.740Z,93.60
2022-11-07T02:24:23.967Z,93.72
2022-11-07T02:26:54.547Z,93.85
2022-11-07T02:29:24.163Z,94.13
2022-11-07T02:32:02.382Z,94.22
2022-11-07T02:34:30.051Z,94.65
2022-11-07T02:36:58.017Z,95.39
2022-11-07T02:39:27.337Z,95.28
2022-11-07T02:41:57.396Z,95.69
2022-11-07T02:44:25.128Z,95.27
2022-11-07T02:46:53.108Z,95.28
2022-11-07T02:49:20.750Z,95.52
2022-11-07T02:51:48.466Z,95.27
2022-11-07T02:54:16.074Z,95.52
2022-11-07T02:56:45.107Z,95.52
2022-11-07T02:59:12.751Z,95.42
2022-11-07T03:01:40.586Z,95.42
2022-11-07T03:04:08.383Z,95.55
2022-11-07T03:06:36.084Z,95.40
2022-11-07T03:09:03.792Z,95.27
2022-11-07T03:11:31.488Z,95.51
2022-11-07T03:14:00.472Z,95.40
2022-11-07T03:16:28.108Z,95.41
2022-11-07T03:18:55.703Z,95.26
2022-11-07T03:21:23.392Z,95.21
2022-11-07T03:23:51.031Z,95.16
2022-11-07T03:26:18.633Z,94.96
2022-11-07T03:28:46.262Z,94.98
2022-11-07T03:31:15.289Z,95.00
2022-11-07T03:33:42.904Z,94.91
2022-11-07T03:36:11.112Z,95.00
2022-11-07T03:38:38.718Z,94.92
2022-11-07T03:41:06.722Z,94.88
2022-11-07T03:43:34.372Z,95.22
2022-11-07T03:46:02.067Z,94.93
2022-11-07T03:48:31.050Z,94.66
2022-11-07T03:50:58.672Z,94.82
2022-11-07T03:53:26.885Z,94.65
2022-11-07T03:55:56.147Z,94.81
2022-11-07T03:58:25.003Z,94.75
2022-11-07T04:00:52.727Z,95.04
2022-11-07T04:03:20.434Z,94.75
2022-11-07T04:05:49.472Z,94.95
2022-11-07T04:08:17.479Z,94.73
2022-11-07T04:10:45.135Z,94.96
2022-11-07T04:13:30.457Z,94.90
2022-11-07T04:16:17.737Z,94.88
2022-11-07T04:18:45.623Z,94.79
2022-11-07T04:21:14.715Z,94.94
2022-11-07T04:23:42.344Z,94.66
2022-11-07T04:26:27.692Z,94.64
2022-11-07T04:28:55.334Z,94.99
2022-11-07T04:31:23.029Z,94.83
2022-11-07T04:33:50.673Z,94.77
2022-11-07T04:36:19.903Z,94.67
2022-11-07T04:38:47.550Z,94.64
2022-11-07T04:41:20.814Z,94.94
2022-11-07T04:43:48.584Z,94.99
2022-11-07T04:46:16.685Z,94.92
2022-11-07T04:48:44.862Z,94.75
2022-11-07T04:51:16.217Z,94.80
2022-11-07T04:53:45.312Z,94.61
2022-11-07T04:56:12.957Z,94.76
2022-11-07T04:58:40.618Z,94.19
2022-11-07T05:01:08.245Z,94.55
2022-11-07T05:03:41.287Z,94.13
2022-11-07T05:06:11.750Z,94.41
2022-11-07T05:08:39.411Z,94.26
2022-11-07T05:11:08.378Z,94.26
2022-11-07T05:13:36.002Z,94.37
2022-11-07T05:16:03.699Z,94.23
2022-11-07T05:18:31.367Z,94.35
2022-11-07T05:20:58.977Z,94.35
2022-11-07T05:23:27.824Z,94.43
2022-11-07T05:25:55.764Z,94.31
2022-11-07T05:28:35.316Z,94.43
2022-11-07T05:31:07.328Z,94.18
2022-11-07T05:33:35.653Z,93.99
2022-11-07T05:36:11.465Z,93.56
2022-11-07T05:38:41.268Z,94.05
2022-11-07T05:41:08.915Z,93.69
2022-11-07T05:43:38.649Z,94.20
2022-11-07T05:46:06.869Z,93.71
2022-11-07T05:48:34.882Z,93.74
2022-11-07T05:51:02.684Z,92.96
2022-11-07T05:53:30.651Z,93.62
2022-11-07T05:55:58.527Z,92.65
2022-11-07T05:58:26.581Z,92.75
2022-11-07T06:00:55.380Z,92.24
2022-11-07T06:03:23.040Z,92.95
2022-11-07T06:05:50.691Z,93.58
2022-11-07T06:08:18.326Z,93.39
2022-11-07T06:10:45.958Z,93.45
2022-11-07T06:13:16.546Z,93.62
2022-11-07T06:15:46.110Z,93.75
2022-11-07T06:18:18.501Z,93.43
2022-11-07T06:20:46.662Z,93.33
2022-11-07T06:23:15.197Z,93.18
2022-11-07T06:25:43.225Z,93.13
2022-11-07T06:28:15.252Z,92.86
2022-11-07T06:30:43.040Z,93.64
2022-11-07T06:33:14.167Z,93.10
2022-11-07T06:35:43.698Z,93.31
2022-11-07T06:38:13.197Z,93.19
2022-11-07T06:40:42.527Z,92.98
2022-11-07T06:43:12.543Z,93.01
2022-11-07T06:45:40.945Z,93.35
2022-11-07T06:48:09.470Z,93.73
2022-11-07T06:50:37.712Z,93.61
2022-11-07T06:53:08.533Z,93.51
2022-11-07T06:55:36.820Z,93.27
2022-11-07T06:58:05.440Z,93.68
2022-11-07T07:00:34.875Z,92.98
2022-11-07T07:03:02.992Z,92.99
2022-11-07T07:05:30.736Z,92.88
2022-11-07T07:07:58.365Z,93.07
2022-11-07T07:10:27.517Z,93.17
2022-11-07T07:12:56.460Z,92.93
2022-11-07T07:15:24.431Z,92.90
2022-11-07T07:17:51.952Z,91.58
2022-11-07T07:20:19.596Z,92.41
2022-11-07T07:22:51.957Z,92.17
2022-11-07T07:25:24.671Z,91.88
2022-11-07T07:27:53.809Z,91.46
2022-11-07T07:30:21.443Z,91.94
2022-11-07T07:32:49.076Z,90.97
2022-11-07T07:35:16.723Z,91.78
2022-11-07T07:37:44.384Z,91.40
2022-11-07T07:40:12.978Z,91.79
2022-11-07T07:42:43.793Z,90.60
2022-11-07T07:45:14.680Z,91.45
2022-11-07T07:47:42.797Z,91.56
2022-11-07T07:50:12.581Z,90.53
2022-11-07T07:52:40.389Z,91.58
2022-11-07T07:55:09.374Z,91.10
2022-11-07T07:57:40.342Z,90.80
2022-11-07T08:00:09.367Z,90.41
2022-11-07T08:02:38.456Z,90.65
2022-11-07T08:05:06.964Z,90.87
2022-11-07T08:07:34.608Z,91.05
2022-11-07T08:10:27.204Z,90.86
2022-11-07T08:12:51.913Z,90.02
2022-11-07T08:15:20.841Z,90.59
2022-11-07T08:17:49.966Z,90.62
2022-11-07T08:20:20.356Z,90.59
2022-11-07T08:22:48.069Z,90.67
2022-11-07T08:25:15.718Z,90.34
2022-11-07T08:27:43.345Z,90.03
2022-11-07T08:30:17.567Z,89.89
2022-11-07T08:32:45.699Z,86.69
2022-11-07T08:35:14.628Z,89.21
2022-11-07T08:37:42.307Z,89.27
2022-11-07T08:40:10.987Z,89.60
2022-11-07T08:42:38.612Z,89.22
2022-11-07T08:45:07.526Z,89.29
2022-11-07T08:47:35.206Z,89.27
2022-11-07T08:50:02.789Z,89.51
2022-11-07T08:52:31.793Z,89.11
2022-11-07T08:54:59.412Z,88.96
2022-11-07T08:57:27.056Z,89.20
2022-11-07T08:59:55.658Z,89.21
2022-11-07T09:05:11.008Z,88.82
2022-11-07T09:07:40.877Z,88.26
2022-11-07T09:10:09.383Z,88.86
2022-11-07T09:12:36.978Z,89.58
2022-11-07T09:15:05.094Z,89.08
2022-11-07T09:17:32.757Z,89.62
2022-11-07T09:20:00.568Z,88.56
2022-11-07T09:22:28.320Z,88.71
2022-11-07T09:24:57.251Z,89.09
2022-11-07T09:27:24.852Z,89.16
2022-11-07T09:29:52.736Z,89.26
2022-11-07T09:32:43.502Z,85.30
2022-11-07T09:35:09.078Z,88.97
2022-11-07T09:37:39.499Z,88.15
2022-11-07T09:40:22.460Z,88.45
2022-11-07T09:43:12.723Z,89.02
2022-11-07T09:45:52.525Z,88.54
2022-11-07T09:48:24.498Z,88.66
2022-11-07T09:50:52.662Z,89.42
2022-11-07T09:53:29.622Z,88.89
2022-11-07T09:56:00.615Z,88.59
2022-11-07T09:58:32.445Z,88.78
2022-11-07T10:01:03.516Z,88.69
2022-11-07T10:03:31.410Z,88.44
2022-11-07T10:06:07.176Z,88.70
2022-11-07T10:08:42.052Z,87.12
2022-11-07T10:11:17.671Z,88.32
2022-11-07T10:14:00.786Z,87.55
2022-11-07T10:16:41.820Z,88.58
2022-11-07T10:19:23.569Z,88.85
2022-11-07T10:22:01.365Z,89.02
2022-11-07T10:24:47.021Z,89.64
2022-11-07T10:27:15.999Z,89.74
2022-11-07T10:29:47.932Z,90.15
2022-11-07T10:32:25.006Z,88.78
2022-11-07T10:35:01.339Z,89.70
2022-11-07T10:37:28.975Z,89.95
2022-11-07T10:39:56.627Z,90.03
2022-11-07T10:42:30.437Z,89.89
2022-11-07T10:45:00.425Z,89.41
2022-11-07T10:47:28.688Z,88.63
2022-11-07T10:49:59.271Z,88.45
2022-11-07T10:52:28.387Z,89.03
2022-11-07T10:55:07.575Z,88.56
2022-11-07T10:57:36.947Z,88.53
2022-11-07T11:00:08.220Z,88.56
2022-11-07T11:02:47.992Z,87.84
2022-11-07T11:05:28.793Z,87.02
2022-11-07T11:07:58.057Z,86.82
2022-11-07T11:10:28.536Z,86.56
2022-11-07T11:12:57.732Z,85.94
2022-11-07T11:15:31.203Z,85.80
2022-11-07T11:18:01.987Z,85.48
2022-11-07T11:20:35.599Z,86.03
2022-11-07T11:23:05.301Z,86.35
2022-11-07T11:25:33.024Z,87.25
2022-11-07T11:28:06.103Z,87.43
2022-11-07T11:30:36.944Z,87.02
2022-11-07T11:33:11.452Z,83.90
2022-11-07T11:35:46.232Z,86.99
2022-11-07T11:38:18.631Z,86.49
2022-11-07T11:40:51.138Z,86.65
2022-11-07T11:43:23.665Z,86.99
2022-11-07T11:46:03.892Z,87.14
2022-11-07T11:48:35.631Z,87.28
2022-11-07T11:51:07.463Z,87.92
2022-11-07T11:53:35.190Z,87.63
2022-11-07T11:56:20.804Z,87.62
2022-11-07T11:59:00.811Z,87.52
2022-11-07T12:01:39.850Z,88.16
2022-11-07T12:04:32.124Z,87.28
2022-11-07T12:07:07.261Z,87.64
2022-11-07T12:09:42.711Z,88.03
2022-11-07T12:12:24.759Z,87.49
2022-11-07T12:15:15.197Z,86.61
2022-11-07T12:17:48.420Z,87.00
2022-11-07T12:20:22.148Z,86.80
2022-11-07T12:23:01.863Z,86.88
2022-11-07T12:25:33.816Z,87.44
2022-11-07T12:28:25.643Z,88.17
2022-11-07T12:31:03.979Z,87.54
2022-11-07T12:33:37.732Z,87.51
2022-11-07T12:36:14.490Z,86.91
2022-11-07T12:39:27.950Z,86.65
2022-11-07T12:41:59.485Z,86.49
2022-11-07T12:44:53.005Z,86.18
2022-11-07T12:47:46.307Z,86.38
2022-11-07T12:50:25.055Z,86.71
2022-11-07T12:53:03.413Z,85.47
2022-11-07T12:55:38.005Z,86.77
2022-11-07T12:58:06.207Z,82.86
2022-11-07T13:00:34.086Z,86.74
2022-11-07T13:03:12.425Z,82.62
2022-11-07T13:05:54.834Z,86.11
2022-11-07T13:08:34.620Z,86.80
2022-11-07T13:11:06.480Z,86.50
2022-11-07T13:13:49.828Z,86.11
2022-11-07T13:16:26.140Z,85.55
2022-11-07T13:18:55.452Z,85.92
2022-11-07T13:21:23.684Z,85.96
2022-11-07T13:23:51.355Z,86.56
2022-11-07T13:26:46.613Z,87.63
2022-11-07T13:29:27.211Z,88.87
2022-11-07T13:32:07.700Z,89.43
2022-11-07T13:34:49.650Z,89.94
2022-11-07T13:37:21.827Z,89.76
2022-11-07T13:39:55.308Z,89.63
2022-11-07T13:42:25.163Z,89.97
2022-11-07T13:44:56.588Z,89.97
2022-11-07T13:47:32.789Z,89.79
2022-11-07T13:50:11.006Z,89.21
2022-11-07T13:52:44.771Z,88.72
2022-11-07T13:55:16.972Z,88.55
2022-11-07T13:57:49.192Z,87.95
2022-11-07T14:00:21.195Z,87.80
2022-11-07T14:02:53.865Z,86.90
2022-11-07T14:05:27.031Z,87.27
2022-11-07T14:08:00.799Z,86.89
2022-11-07T14:10:32.813Z,87.54
2022-11-07T14:13:07.652Z,87.15
2022-11-07T14:15:36.644Z,87.60
2022-11-07T14:18:05.386Z,87.16
2022-11-07T14:20:34.412Z,86.80
2022-11-07T14:23:02.284Z,86.88
2022-11-07T14:25:30.783Z,81.19
2022-11-07T14:27:59.238Z,86.49
2022-11-07T14:30:29.513Z,86.69
2022-11-07T14:32:59.008Z,86.46
2022-11-07T14:35:29.264Z,86.67
2022-11-07T14:37:59.369Z,86.92
2022-11-07T14:40:28.890Z,86.77
2022-11-07T14:42:56.721Z,86.57
2022-11-07T14:45:47.126Z,81.74
2022-11-07T14:48:14.532Z,86.42
2022-11-07T14:50:42.921Z,86.91
2022-11-07T14:53:18.247Z,87.63
2022-11-07T14:55:51.271Z,87.85
2022-11-07T14:58:22.852Z,87.52
2022-11-07T15:00:55.618Z,87.96
2022-11-07T15:03:30.659Z,88.03
2022-11-07T15:05:58.846Z,88.12
2022-11-07T15:08:30.293Z,88.53
2022-11-07T15:11:03.209Z,88.52
2022-11-07T15:13:34.028Z,88.69
2022-11-07T15:16:04.164Z,88.42
2022-11-07T15:18:36.511Z,89.10
2022-11-07T15:21:04.373Z,89.33
2022-11-07T15:23:33.964Z,87.04
2022-11-07T15:26:12.061Z,89.58
2022-11-07T15:28:47.171Z,89.88
2022-11-07T15:31:23.874Z,90.60
2022-11-07T15:33:52.375Z,90.63
2022-11-07T15:36:20.822Z,91.05
2022-11-07T15:38:50.486Z,91.03
2022-11-07T15:41:18.615Z,91.27
2022-11-07T15:43:46.599Z,91.57
2022-11-07T15:46:25.370Z,91.88
2022-11-07T15:48:53.845Z,92.09
2022-11-07T15:51:21.578Z,92.42
2022-11-07T15:53:50.623Z,92.28
2022-11-07T15:56:21.836Z,92.38
2022-11-07T15:58:49.498Z,92.48
2022-11-07T16:01:17.157Z,92.76
2022-11-07T16:03:44.842Z,92.98
2022-11-07T16:06:18.272Z,93.22
2022-11-07T16:08:45.880Z,93.47
2022-11-07T16:11:14.821Z,93.34
2022-11-07T16:13:42.457Z,93.25
2022-11-07T16:16:18.987Z,93.59
2022-11-07T16:18:49.632Z,94.03
2022-11-07T16:21:17.428Z,93.83
2022-11-07T16:23:47.946Z,93.78
2022-11-07T16:26:20.147Z,93.99
2022-11-07T16:28:47.880Z,93.55
2022-11-07T16:31:15.534Z,93.88
2022-11-07T16:33:43.204Z,93.68
2022-11-07T16:36:19.090Z,93.76
2022-11-07T16:38:46.760Z,93.59
2022-11-07T16:41:14.920Z,93.74
2022-11-07T16:43:44.017Z,93.43
2022-11-07T16:46:17.285Z,93.24
2022-11-07T16:48:46.805Z,93.42
2022-11-07T16:51:16.742Z,93.45
2022-11-07T16:53:44.682Z,93.20
2022-11-07T16:56:23.106Z,92.89
2022-11-07T16:58:52.895Z,92.93
2022-11-07T17:01:20.654Z,92.87
2022-11-07T17:03:48.395Z,92.96
2022-11-07T17:06:20.987Z,92.30
2022-11-07T17:08:49.126Z,92.56
2022-11-07T17:11:18.761Z,92.36
2022-11-07T17:13:46.632Z,92.26
2022-11-07T17:16:17.391Z,91.61
2022-11-07T17:18:46.952Z,92.25
2022-11-07T17:21:23.765Z,92.18
2022-11-07T17:23:52.142Z,92.23
2022-11-07T17:26:22.580Z,92.46
2022-11-07T17:28:50.841Z,92.22
2022-11-07T17:31:20.171Z,92.05
2022-11-07T17:33:48.166Z,91.61
2022-11-07T17:36:36.262Z,91.39
2022-11-07T17:39:11.681Z,91.63
2022-11-07T17:41:39.814Z,90.62
2022-11-07T17:44:07.660Z,91.30
2022-11-07T17:46:37.036Z,88.92
2022-11-07T17:49:06.766Z,91.04
2022-11-07T17:51:35.763Z,90.86
2022-11-07T17:54:04.420Z,90.83
2022-11-07T17:56:33.177Z,90.72
2022-11-07T17:59:02.784Z,90.42
2022-11-07T18:01:33.133Z,90.65
2022-11-07T18:04:02.847Z,90.04
2022-11-07T18:06:31.021Z,89.73
2022-11-07T18:09:00.182Z,89.56
2022-11-07T18:11:29.722Z,89.82
2022-11-07T18:13:59.162Z,89.33
2022-11-07T18:16:29.199Z,89.15
2022-11-07T18:18:58.036Z,89.44
2022-11-07T18:21:27.653Z,88.53
2022-11-07T18:23:55.489Z,88.57
2022-11-07T18:26:25.247Z,85.74
2022-11-07T18:28:53.890Z,88.81
2022-11-07T18:31:23.701Z,89.01
2022-11-07T18:33:52.570Z,88.60
2022-11-07T18:36:22.324Z,88.89
2022-11-07T18:38:51.333Z,89.01
2022-11-07T18:41:21.009Z,88.74
2022-11-07T18:43:49.632Z,88.82
2022-11-07T18:46:19.197Z,88.94
2022-11-07T18:48:47.366Z,88.62
2022-11-07T18:51:17.847Z,88.81
2022-11-07T18:53:45.936Z,89.12
2022-11-07T18:56:15.356Z,88.83
2022-11-07T18:58:43.591Z,88.96
2022-11-07T19:01:14.363Z,89.52
2022-11-07T19:03:43.401Z,88.51
2022-11-07T19:06:13.583Z,88.94
2022-11-07T19:08:43.499Z,88.73
2022-11-07T19:11:14.030Z,88.64
2022-11-07T19:13:45.374Z,88.90
2022-11-07T19:16:15.495Z,89.09
2022-11-07T19:18:48.934Z,88.95
2022-11-07T19:21:19.764Z,88.51
2022-11-07T19:23:47.721Z,88.66
2022-11-07T19:26:16.147Z,88.61
2022-11-07T19:28:45.167Z,88.54
2022-11-07T19:31:13.467Z,88.67
2022-11-07T19:33:41.490Z,88.67
2022-11-07T19:36:14.888Z,88.41
2022-11-07T19:38:42.824Z,88.84
2022-11-07T19:41:11.750Z,88.88
2022-11-07T19:43:39.811Z,88.63
2022-11-07T19:46:09.848Z,88.60
2022-11-07T19:48:37.625Z,88.36
2022-11-07T19:51:07.173Z,88.54
2022-11-07T19:53:35.233Z,88.90
2022-11-07T19:56:06.897Z,88.85
2022-11-07T19:58:36.455Z,88.74
2022-11-07T20:01:10.970Z,88.77
2022-11-07T20:03:38.901Z,89.01
2022-11-07T20:06:10.481Z,85.09
2022-11-07T20:08:38.108Z,88.82
2022-11-07T20:11:05.968Z,88.77
2022-11-07T20:13:33.946Z,85.50
2022-11-07T20:16:01.790Z,88.53
2022-11-07T20:18:33.666Z,88.85
2022-11-07T20:21:03.154Z,88.97
2022-11-07T20:23:31.198Z,88.50
2022-11-07T20:25:58.883Z,88.73
2022-11-07T20:28:26.570Z,88.71
2022-11-07T20:30:55.969Z,88.97
2022-11-07T20:33:25.356Z,88.64
2022-11-07T20:36:02.847Z,88.56
2022-11-07T20:38:31.126Z,88.61
2022-11-07T20:40:59.049Z,88.13
2022-11-07T20:43:26.652Z,84.42
2022-11-07T20:45:54.298Z,87.28
2022-11-07T20:48:22.556Z,88.07
2022-11-07T20:50:50.202Z,88.25
2022-11-07T20:53:19.463Z,88.10
2022-11-07T20:55:47.378Z,88.09
2022-11-07T20:58:15.029Z,87.44
2022-11-07T21:00:43.401Z,87.69
2022-11-07T21:03:16.243Z,87.65
2022-11-07T21:05:44.320Z,87.86
2022-11-07T21:08:12.108Z,84.50
2022-11-07T21:10:41.134Z,87.82
2022-11-07T21:13:08.808Z,88.05
2022-11-07T21:15:36.889Z,87.68
2022-11-07T21:18:04.712Z,87.96
2022-11-07T21:20:32.379Z,87.66
2022-11-07T21:23:00.044Z,87.67
2022-11-07T21:25:27.659Z,87.66
2022-11-07T21:27:56.698Z,87.46
2022-11-07T21:30:24.312Z,87.63
2022-11-07T21:32:51.964Z,87.52
2022-11-07T21:35:22.423Z,87.56
2022-11-07T21:37:50.365Z,87.28
2022-11-07T21:40:17.810Z,84.17
2022-11-07T21:42:45.463Z,87.65
2022-11-07T21:45:14.596Z,88.22
2022-11-07T21:47:45.808Z,87.39
2022-11-07T21:50:38.287Z,87.91
2022-11-07T21:53:05.137Z,87.42
2022-11-07T21:55:33.144Z,87.83
2022-11-07T21:58:00.841Z,87.51
2022-11-07T22:00:35.534Z,88.00
2022-11-07T22:03:04.161Z,87.77
2022-11-07T22:05:31.809Z,87.61
2022-11-07T22:07:59.601Z,87.35
2022-11-07T22:10:27.255Z,87.11
2022-11-07T22:12:54.921Z,87.07
2022-11-07T22:15:22.568Z,87.34
2022-11-07T22:17:51.571Z,87.26
2022-11-07T22:20:19.234Z,87.38
2022-11-07T22:22:46.884Z,87.17
2022-11-07T22:25:14.530Z,87.47
2022-11-07T22:27:42.204Z,87.52
2022-11-07T22:30:10.984Z,87.16
2022-11-07T22:32:38.632Z,86.96
2022-11-07T22:35:09.431Z,86.96
2022-11-07T22:37:37.184Z,87.15
2022-11-07T22:40:05.295Z,87.18
2022-11-07T22:42:33.452Z,86.88
2022-11-07T22:45:01.126Z,87.16
2022-11-07T22:47:28.761Z,87.12
2022-11-07T22:49:56.419Z,86.82
2022-11-07T22:52:25.371Z,86.37
2022-11-07T22:54:52.995Z,86.51
2022-11-07T22:57:20.594Z,86.53
2022-11-07T22:59:48.212Z,87.15
2022-11-07T23:02:15.906Z,86.69
2022-11-07T23:04:44.089Z,86.94
2022-11-07T23:07:11.668Z,86.82
2022-11-07T23:09:40.868Z,86.55
2022-11-07T23:12:08.617Z,86.93
2022-11-07T23:14:36.298Z,87.26
2022-11-07T23:17:04.013Z,87.22
2022-11-07T23:19:31.699Z,86.85
2022-11-07T23:21:59.342Z,87.08
2022-11-07T23:24:27.016Z,86.83
2022-11-07T23:26:55.978Z,87.19
2022-11-07T23:29:25.228Z,87.33
2022-11-07T23:31:53.143Z,86.89
2022-11-07T23:34:21.116Z,82.78
2022-11-07T23:36:51.477Z,86.09
2022-11-07T23:39:21.054Z,86.92
2022-11-07T23:41:49.160Z,87.03
2022-11-07T23:44:18.244Z,87.53
2022-11-07T23:47:03.513Z,87.74
2022-11-07T23:49:48.021Z,87.85
2022-11-07T23:52:16.016Z,87.76
2022-11-07T23:55:02.932Z,87.62
2022-11-07T23:57:33.457Z,88.10
